Time;durP1;ratioP1;P1;durP2;ratioP2;P2;SDS_P1;SDS_P2;PMS_P1;PMS_P2;Temp;Humidity;BMP_temperature;BMP_pressure;BME280_temperature;BME280_humidity;BME280_pressure;Samples;Min_cycle;Max_cycle;Signal;HPM_P1;HPM_P2
2022/04/16 00:12:44;;;;;;;14.87;7.70;;;;;;;7.44;100.00;100496.63;31338671;28;20052;-73
2022/04/16 00:27:47;;;;;;;17.77;8.10;;;;;;;7.17;100.00;100501.63;31350999;28;20049;-71
2022/04/16 00:42:49;;;;;;;16.20;8.83;;;;;;;7.10;100.00;100497.00;31359044;28;20060;-72
2022/04/16 00:57:51;;;;;;;14.47;7.90;;;;;;;6.99;100.00;100479.25;31332296;28;20401;-72
2022/04/16 01:13:01;;;;;;;16.70;7.13;;;;;;;6.84;100.00;100486.56;31366498;28;20057;-72
2022/04/16 01:28:04;;;;;;;16.70;8.37;;;;;;;6.68;100.00;100478.03;31365957;28;20048;-72
2022/04/16 01:43:06;;;;;;;17.60;9.03;;;;;;;6.44;100.00;100468.72;31376163;28;20084;-71
2022/04/16 01:58:09;;;;;;;17.50;8.13;;;;;;;6.32;100.00;100442.91;31354763;28;20407;-71
2022/04/16 02:13:11;;;;;;;17.00;8.73;;;;;;;6.16;100.00;100424.34;31345234;28;20060;-72
2022/04/16 02:28:13;;;;;;;19.03;9.63;;;;;;;6.04;100.00;100434.72;31364078;28;20057;-72
2022/04/16 02:43:15;;;;;;;22.40;9.27;;;;;;;5.93;100.00;100450.06;31365305;28;20067;-72
2022/04/16 02:58:16;;;;;;;21.23;8.77;;;;;;;5.94;100.00;100432.72;31380007;28;20045;-71
2022/04/16 03:13:19;;;;;;;23.80;10.43;;;;;;;6.05;100.00;100433.56;31375978;28;20120;-72
2022/04/16 03:28:21;;;;;;;18.70;8.33;;;;;;;6.21;100.00;100425.13;31365507;28;20075;-71
2022/04/16 03:43:29;;;;;;;21.83;9.27;;;;;;;6.36;100.00;100424.81;31373738;28;20147;-72
2022/04/16 04:13:55;;;;;;;19.27;8.73;;;;;;;6.65;100.00;100427.56;31378415;28;20084;-72
2022/04/16 04:28:57;;;;;;;15.40;7.43;;;;;;;6.89;100.00;100432.19;31392141;28;20055;-71
2022/04/16 04:43:59;;;;;;;19.03;8.43;;;;;;;6.59;100.00;100434.50;31348483;28;20143;-73
2022/04/16 04:59:01;;;;;;;14.30;7.53;;;;;;;6.34;100.00;100410.94;31358068;28;20527;-71
2022/04/16 05:14:06;;;;;;;18.37;8.90;;;;;;;6.28;100.00;100425.16;31356573;28;20053;-72
2022/04/16 05:29:14;;;;;;;13.03;6.53;;;;;;;6.16;100.00;100407.41;31379145;28;20055;-72
2022/04/16 05:44:18;;;;;;;21.03;11.37;;;;;;;6.68;100.00;100443.75;31353366;28;20057;-72
2022/04/16 05:59:24;;;;;;;13.80;6.87;;;;;;;6.50;100.00;100442.94;31359615;28;20045;-72
2022/04/16 06:14:26;;;;;;;11.30;5.53;;;;;;;6.68;100.00;100442.97;31396801;28;20045;-73
2022/04/16 06:29:28;;;;;;;15.47;7.47;;;;;;;6.99;100.00;100452.25;31386128;28;20383;-72
2022/04/16 06:44:31;;;;;;;15.67;7.67;;;;;;;7.21;100.00;100442.22;31377672;28;20049;-75
2022/04/16 06:59:37;;;;;;;15.00;7.03;;;;;;;7.49;100.00;100431.41;31369041;28;20057;-72
2022/04/16 07:14:40;;;;;;;14.03;7.27;;;;;;;8.12;100.00;100394.50;31374714;28;20059;-74
2022/04/16 07:29:42;;;;;;;17.23;6.70;;;;;;;8.51;100.00;100446.47;31379348;28;20393;-73
2022/04/16 07:44:44;;;;;;;21.37;11.50;;;;;;;8.61;100.00;100422.47;31352507;28;20060;-73
2022/04/16 07:59:46;;;;;;;15.40;8.77;;;;;;;8.80;100.00;100430.06;31368391;28;20041;-72
2022/04/16 08:14:47;;;;;;;18.77;9.30;;;;;;;9.21;100.00;100417.31;31346157;28;20048;-72
2022/04/16 08:29:49;;;;;;;14.47;7.07;;;;;;;9.81;100.00;100437.66;31376934;28;20401;-74
2022/04/16 08:44:52;;;;;;;11.30;7.00;;;;;;;10.10;100.00;100421.03;31359875;28;20052;-74
2022/04/16 08:59:54;;;;;;;16.77;8.50;;;;;;;10.29;100.00;100400.66;31381767;28;20052;-73
2022/04/16 09:15:03;;;;;;;14.63;6.87;;;;;;;10.51;100.00;100418.94;31420511;28;20135;-74
2022/04/16 09:30:06;;;;;;;15.93;8.53;;;;;;;10.51;100.00;100402.66;31353104;28;20091;-72
2022/04/16 09:45:17;;;;;;;16.53;9.20;;;;;;;11.46;100.00;100388.66;31366726;28;20045;-72
2022/04/16 10:00:19;;;;;;;16.20;8.80;;;;;;;11.69;100.00;100400.66;31392080;28;20189;-73
2022/04/16 10:15:24;;;;;;;14.73;8.67;;;;;;;12.00;100.00;100387.66;31360418;28;20037;-71
2022/04/16 10:30:35;;;;;;;9.13;5.73;;;;;;;12.53;100.00;100379.06;31362873;28;20052;-72
2022/04/16 10:45:54;;;;;;;13.97;7.63;;;;;;;13.80;99.83;100371.53;31388406;28;20080;-74
2022/04/16 11:01:08;;;;;;;11.37;6.77;;;;;;;14.87;93.11;100381.94;31406745;28;20501;-72
2022/04/16 11:16:10;;;;;;;9.97;6.73;;;;;;;14.72;92.24;100367.19;31390342;28;20057;-72
2022/04/16 11:46:41;;;;;;;13.27;6.97;;;;;;;15.13;87.70;100344.34;31402797;28;20060;-73
2022/04/16 12:01:42;;;;;;;9.47;6.00;;;;;;;14.00;90.04;100339.34;31368215;28;20056;-74
2022/04/16 12:16:44;;;;;;;15.03;9.23;;;;;;;13.69;92.56;100327.41;31379729;28;20531;-72
2022/04/16 12:31:56;;;;;;;13.47;7.93;;;;;;;13.72;93.15;100303.94;31377345;28;20056;-72
2022/04/16 12:46:58;;;;;;;15.83;7.03;;;;;;;14.14;95.68;100275.38;31390771;28;20063;-73
2022/04/16 13:02:00;;;;;;;11.97;8.00;;;;;;;14.54;94.41;100270.19;31376939;28;20458;-73
2022/04/16 13:17:02;;;;;;;20.70;8.30;;;;;;;14.37;93.91;100255.13;31315277;28;20041;-72
2022/04/16 13:32:05;;;;;;;13.53;8.30;;;;;;;14.33;94.86;100249.03;31357856;28;20130;-72
2022/04/16 13:47:07;;;;;;;14.10;7.57;;;;;;;14.31;94.43;100226.84;31351408;28;20140;-72
2022/04/16 14:02:10;;;;;;;13.40;8.10;;;;;;;14.37;95.58;100221.59;31357839;28;20501;-71
2022/04/16 14:17:12;;;;;;;13.93;7.73;;;;;;;14.04;97.13;100224.59;31372327;28;20143;-71
2022/04/16 14:32:14;;;;;;;15.57;7.57;;;;;;;13.31;100.00;100219.00;31386988;28;20057;-71
2022/04/16 14:47:15;;;;;;;13.23;7.83;;;;;;;12.90;100.00;100229.88;31400316;28;20048;-72
2022/04/16 15:02:17;;;;;;;10.70;6.57;;;;;;;12.52;100.00;100210.66;31377990;28;20056;-71
2022/04/16 15:17:26;;;;;;;11.13;6.43;;;;;;;12.28;100.00;100201.94;31378385;28;20051;-71
2022/04/16 15:32:28;;;;;;;12.43;6.50;;;;;;;12.05;100.00;100191.22;31401493;28;20052;-71
2022/04/16 15:47:30;;;;;;;13.73;7.43;;;;;;;11.81;100.00;100185.94;31360246;28;20396;-72
2022/04/16 16:02:32;;;;;;;16.20;7.53;;;;;;;11.47;100.00;100172.72;31418067;28;20492;-72
2022/04/16 16:17:35;;;;;;;15.70;7.27;;;;;;;11.20;100.00;100183.03;31342958;28;20099;-73
2022/04/16 16:32:37;;;;;;;15.87;7.30;;;;;;;11.07;100.00;100182.91;31399168;28;20454;-72
2022/04/16 16:47:39;;;;;;;17.40;9.47;;;;;;;10.94;100.00;100190.13;31396149;28;20053;-72
2022/04/16 17:33:22;;;;;;;12.93;7.07;;;;;;;10.65;100.00;100227.91;31382316;28;20064;-72
2022/04/16 17:48:24;;;;;;;12.83;6.50;;;;;;;10.55;100.00;100224.22;31343143;28;20076;-72
2022/04/16 18:03:28;;;;;;;14.60;6.90;;;;;;;10.41;100.00;100229.88;31341946;28;20060;-72
2022/04/16 18:18:30;;;;;;;12.47;6.77;;;;;;;10.18;100.00;100227.13;31341514;28;20432;-72
2022/04/16 18:33:32;;;;;;;16.10;7.67;;;;;;;10.00;100.00;100226.66;31363633;28;20053;-73
2022/04/16 18:48:34;;;;;;;14.40;6.63;;;;;;;9.81;100.00;100237.00;31359578;28;20045;-74
2022/04/16 19:18:59;;;;;;;13.67;7.27;;;;;;;9.43;100.00;100233.66;31354717;28;20060;-72
2022/04/16 19:34:01;;;;;;;15.37;7.20;;;;;;;9.28;100.00;100242.34;31308818;28;20059;-74
2022/04/16 19:49:02;;;;;;;11.77;6.50;;;;;;;9.20;100.00;100258.72;31344318;28;20056;-74
2022/04/16 20:04:06;;;;;;;15.17;7.70;;;;;;;9.14;100.00;100260.31;31337341;28;20057;-73
2022/04/16 20:19:07;;;;;;;15.83;6.97;;;;;;;9.13;100.00;100261.50;31343016;28;20480;-73
2022/04/16 20:34:10;;;;;;;14.03;7.80;;;;;;;9.04;100.00;100258.50;31338857;28;20079;-73
2022/04/16 20:49:12;;;;;;;14.70;8.27;;;;;;;8.97;100.00;100261.28;31342377;28;20060;-73
2022/04/16 21:04:13;;;;;;;14.47;7.13;;;;;;;8.96;100.00;100254.34;31347054;28;20045;-72
2022/04/16 21:19:15;;;;;;;10.10;6.60;;;;;;;9.01;100.00;100259.28;31339075;28;20048;-73
2022/04/16 21:34:18;;;;;;;17.00;8.00;;;;;;;8.90;100.00;100266.78;31353471;28;20067;-73
2022/04/16 21:49:20;;;;;;;16.50;7.47;;;;;;;8.92;100.00;100252.84;31327651;28;20061;-73
2022/04/16 22:04:25;;;;;;;13.40;7.37;;;;;;;8.80;100.00;100263.00;31352270;28;20045;-75
2022/04/16 22:19:27;;;;;;;14.13;7.20;;;;;;;8.74;100.00;100271.97;31404721;28;20052;-73
2022/04/16 22:34:29;;;;;;;13.00;6.90;;;;;;;8.56;100.00;100264.00;31358736;28;20056;-73
2022/04/16 22:49:33;;;;;;;12.13;6.47;;;;;;;8.53;100.00;100260.16;31394277;28;20052;-73
2022/04/16 23:04:36;;;;;;;16.03;7.17;;;;;;;8.57;100.00;100243.13;31382024;28;20646;-73
2022/04/16 23:19:37;;;;;;;14.27;6.50;;;;;;;8.57;100.00;100216.06;31393476;28;20096;-73
2022/04/16 23:34:39;;;;;;;21.53;7.90;;;;;;;8.57;100.00;100227.66;31388115;28;20061;-73
2022/04/16 23:49:42;;;;;;;17.50;7.37;;;;;;;8.54;100.00;100234.63;31367012;28;20053;-73
